New Sharon, Maine
Current Conditions -  °F | °C
As of 11:15 PM on Tuesday 27 Jan 2015 (Local Time) from KWVL Reporting Station
Overcast Overcast  
Wind Chill: -6°   Ceiling: 1100
Heat Index: 12°   Visibility: 1mi
Dew Point: 10°   Wind: 21mph
Humidity: 92%   Direction: 360°N
Pressure: 29.6"   Gusts: 30mph
Location:  44.64°N, 70.02°W
Report Text: KWVL 280415Z 36018G26KT 1SM OVC011 M11/M12 A2960 RMK AO1
Loading
Personal Weather Stations






























Interactive Weather Map New forecast layout! Learn more

10-Day Weather Forecast

Advertisements
Track Severe Weather on mobile